createdAt,value
2023-05-01T00:00:52.956Z,5.80
2023-05-01T00:03:26.933Z,8.80
2023-05-01T00:06:04.384Z,5.73
2023-05-01T00:08:40.214Z,7.10
2023-05-01T04:21:22.097Z,9.37
2023-05-01T04:23:54.868Z,8.13
2023-05-01T04:26:30.194Z,7.60
2023-05-01T04:29:00.818Z,9.60
2023-05-01T04:31:34.572Z,8.97
2023-05-01T04:34:07.098Z,6.93
2023-05-01T04:36:42.689Z,8.20
2023-05-01T04:39:15.160Z,9.60
2023-05-01T04:41:46.626Z,7.53
2023-05-01T04:44:18.975Z,9.20
2023-05-01T04:47:01.208Z,9.37
2023-05-01T04:49:33.734Z,8.63
2023-05-01T04:52:06.521Z,7.17
2023-05-01T04:54:36.364Z,8.60
2023-05-01T04:57:06.443Z,9.80
2023-05-01T04:59:36.336Z,6.50
2023-05-01T05:02:10.475Z,8.10
2023-05-01T05:04:40.301Z,10.10
2023-05-01T05:07:12.853Z,8.77
2023-05-01T05:09:42.733Z,9.03
2023-05-01T05:12:12.693Z,9.23
2023-05-01T05:14:42.579Z,9.00
2023-05-01T05:17:12.613Z,8.40
2023-05-01T05:19:42.436Z,8.60
2023-05-01T05:22:15.913Z,9.23
2023-05-01T05:24:48.227Z,9.50
2023-05-01T05:27:19.178Z,10.17
2023-05-01T05:29:49.184Z,7.03
2023-05-01T05:32:29.855Z,8.17
2023-05-01T05:35:01.007Z,10.13
2023-05-01T05:37:34.892Z,11.93
2023-05-01T06:21:52.051Z,8.83
2023-05-01T06:24:22.326Z,7.37
2023-05-01T06:26:52.237Z,9.33
2023-05-01T06:29:31.589Z,9.13
2023-05-01T06:32:07.034Z,7.83
2023-05-01T06:34:36.884Z,9.10
2023-05-01T06:37:12.323Z,9.70
2023-05-01T06:39:42.121Z,9.17
2023-05-01T06:42:16.050Z,9.67
2023-05-01T06:52:57.351Z,9.63
2023-05-01T06:55:27.416Z,13.23
2023-05-01T06:58:15.997Z,9.90
2023-05-01T07:00:52.396Z,8.33
2023-05-01T07:03:25.705Z,8.87
2023-05-01T07:06:04.487Z,8.50
2023-05-01T07:08:48.167Z,9.52
2023-05-01T07:17:43.535Z,8.15
2023-05-01T07:20:21.371Z,7.78
2023-05-01T07:22:56.854Z,7.38
2023-05-01T07:25:32.563Z,6.05
2023-05-01T07:28:04.748Z,8.20
2023-05-01T07:30:40.330Z,7.07
2023-05-01T07:33:16.808Z,6.45
2023-05-01T07:35:48.144Z,5.97
2023-05-01T07:38:24.736Z,5.75
2023-05-01T07:40:59.897Z,7.43
2023-05-01T07:43:29.745Z,6.57
2023-05-01T07:46:03.646Z,6.93
2023-05-01T07:48:36.032Z,6.43
2023-05-01T07:51:09.587Z,5.32
2023-05-01T07:53:40.968Z,7.10
2023-05-01T07:56:16.571Z,6.10
2023-05-01T07:58:52.538Z,6.00
2023-05-01T08:01:25.206Z,8.07
2023-05-01T08:03:56.524Z,5.50
2023-05-01T08:06:28.043Z,6.05
2023-05-01T08:09:01.935Z,7.07
2023-05-01T08:11:37.307Z,7.95
2023-05-01T08:14:20.815Z,7.88
2023-05-01T08:16:58.101Z,6.22
2023-05-01T08:19:35.490Z,6.30
2023-05-01T08:22:05.332Z,6.43
2023-05-01T08:24:46.627Z,7.35
2023-05-01T08:27:24.454Z,6.80
2023-05-01T08:29:55.893Z,5.22
2023-05-01T08:32:34.637Z,5.63
2023-05-01T08:35:16.098Z,7.93
2023-05-01T08:37:51.096Z,7.85
2023-05-01T08:40:23.810Z,6.43
2023-05-01T08:42:57.470Z,6.28
2023-05-01T08:45:29.138Z,5.75
2023-05-01T08:47:59.436Z,8.63
2023-05-01T08:50:30.801Z,5.93
2023-05-01T08:53:09.062Z,6.55
2023-05-01T08:55:40.757Z,5.93
2023-05-01T08:58:16.562Z,8.40
2023-05-01T09:09:49.908Z,5.97
2023-05-01T09:12:52.144Z,6.97
2023-05-01T09:16:11.074Z,5.28
2023-05-01T09:18:43.971Z,4.35
2023-05-01T09:21:17.251Z,4.60
2023-05-01T09:23:47.391Z,5.80
2023-05-01T09:26:20.493Z,6.70
2023-05-01T09:28:52.292Z,5.85
2023-05-01T09:31:31.633Z,4.70
2023-05-01T09:34:08.693Z,6.13
2023-05-01T09:36:45.080Z,5.88
2023-05-01T09:39:26.188Z,5.88
2023-05-01T09:42:00.779Z,3.65
2023-05-01T09:44:33.273Z,3.38
2023-05-01T09:47:09.370Z,4.72
2023-05-01T09:50:01.591Z,5.10
2023-05-01T09:52:34.376Z,5.75
2023-05-01T09:55:22.684Z,6.38
2023-05-01T09:57:54.681Z,3.65
2023-05-01T10:00:52.172Z,4.53
2023-05-01T10:03:27.431Z,2.50
2023-05-01T10:06:04.526Z,2.42
2023-05-01T10:11:34.149Z,3.30
2023-05-01T10:14:12.168Z,2.65
2023-05-01T10:16:42.263Z,3.42
2023-05-01T10:19:14.111Z,4.28
2023-05-01T10:21:47.082Z,4.25
2023-05-01T10:24:28.221Z,3.60
2023-05-01T10:27:09.405Z,3.38
2023-05-01T10:29:43.074Z,3.25
2023-05-01T10:32:16.237Z,3.38
2023-05-01T10:34:54.438Z,3.28
2023-05-01T10:37:35.052Z,4.93
2023-05-01T10:40:42.494Z,2.17
2023-05-01T10:43:21.229Z,2.72
2023-05-01T10:45:52.223Z,3.78
2023-05-01T10:48:52.090Z,2.47
2023-05-01T10:51:26.601Z,3.47
2023-05-01T10:54:29.844Z,3.75
2023-05-01T10:57:03.593Z,6.38
2023-05-01T11:00:13.707Z,5.10
2023-05-01T11:02:43.824Z,5.50
2023-05-01T11:05:29.030Z,3.85
2023-05-01T11:08:32.293Z,2.92
2023-05-01T11:11:37.065Z,3.67
2023-05-01T11:14:11.273Z,5.22
2023-05-01T11:16:46.570Z,3.47
2023-05-01T11:19:46.314Z,3.70
2023-05-01T11:22:16.387Z,3.50
2023-05-01T11:24:46.606Z,3.20
2023-05-01T11:27:18.490Z,5.13
2023-05-01T11:29:53.400Z,3.90
2023-05-01T11:32:27.920Z,3.55
2023-05-01T11:34:58.601Z,2.72
2023-05-01T11:37:45.778Z,2.80
2023-05-01T11:40:26.331Z,4.43
2023-05-01T11:43:04.944Z,3.17
2023-05-01T11:45:38.305Z,3.00
2023-05-01T11:48:17.110Z,2.83
2023-05-01T11:50:47.103Z,3.67
2023-05-01T11:53:18.864Z,3.13
2023-05-01T11:55:49.611Z,2.35
2023-05-01T11:58:19.547Z,3.58
2023-05-01T12:00:53.664Z,4.30
2023-05-01T12:03:24.586Z,2.20
2023-05-01T12:05:55.529Z,3.20
2023-05-01T12:08:25.784Z,2.97
2023-05-01T12:10:58.626Z,4.10
2023-05-01T12:13:29.731Z,6.18
2023-05-01T12:16:03.558Z,6.18
2023-05-01T12:18:33.575Z,4.35
2023-05-01T12:21:03.551Z,5.20
2023-05-01T12:23:35.214Z,4.03
2023-05-01T12:26:05.991Z,6.07
2023-05-01T12:28:35.904Z,8.23
2023-05-01T12:31:08.841Z,3.95
2023-05-01T12:33:38.655Z,7.53
2023-05-01T12:36:16.047Z,4.50
2023-05-01T12:38:59.437Z,6.20
2023-05-01T12:41:37.294Z,6.07
2023-05-01T12:44:22.694Z,3.65
2023-05-01T12:47:03.266Z,4.50
2023-05-01T12:49:38.661Z,3.22
2023-05-01T12:52:10.096Z,5.32
2023-05-01T12:54:41.804Z,4.30
2023-05-01T12:57:14.892Z,4.10
2023-05-01T12:59:47.197Z,6.13
2023-05-01T13:02:21.178Z,4.55
2023-05-01T13:04:53.814Z,3.47
2023-05-01T13:07:23.732Z,3.28
2023-05-01T13:10:01.273Z,3.90
2023-05-01T13:12:47.078Z,3.72
2023-05-01T13:15:23.974Z,4.55
2023-05-01T13:17:56.681Z,4.90
2023-05-01T13:20:34.639Z,4.20
2023-05-01T13:23:14.328Z,4.35
2023-05-01T13:25:49.515Z,2.63
2023-05-01T13:28:41.493Z,4.00
2023-05-01T13:31:24.053Z,3.80
2023-05-01T13:34:05.334Z,3.75
2023-05-01T13:36:38.150Z,3.78
2023-05-01T13:39:08.023Z,3.13
2023-05-01T13:41:37.905Z,4.47
2023-05-01T13:44:14.583Z,5.20
2023-05-01T13:46:47.874Z,3.90
2023-05-01T13:49:28.641Z,4.20
2023-05-01T13:52:00.538Z,3.53
2023-05-01T13:54:34.922Z,5.32
2023-05-01T13:57:09.921Z,3.83
2023-05-01T13:59:44.686Z,4.53
2023-05-01T14:02:26.898Z,2.67
2023-05-01T14:05:05.041Z,5.10
2023-05-01T14:07:35.257Z,4.75
2023-05-01T14:10:06.250Z,5.30
2023-05-01T14:12:36.119Z,5.88
2023-05-01T14:15:07.332Z,7.53
2023-05-01T14:17:38.713Z,5.53
2023-05-01T14:20:12.426Z,9.50
2023-05-01T14:22:47.165Z,8.18
2023-05-01T14:25:26.474Z,7.00
2023-05-01T14:27:58.610Z,8.95
2023-05-01T14:30:33.794Z,7.38
2023-05-01T14:33:05.039Z,11.43
2023-05-01T14:35:38.790Z,10.52
2023-05-01T14:38:12.999Z,9.52
2023-05-01T14:40:43.822Z,11.80
2023-05-01T14:43:16.785Z,13.30
2023-05-01T14:45:49.997Z,12.10
2023-05-01T14:48:26.205Z,10.93
2023-05-01T14:50:59.830Z,11.75
2023-05-01T14:53:36.816Z,14.70
2023-05-01T14:56:06.786Z,12.82
2023-05-01T14:58:36.586Z,11.85
2023-05-01T15:01:06.660Z,16.55
2023-05-01T15:03:41.748Z,11.27
2023-05-01T15:06:14.690Z,12.88
2023-05-01T15:08:44.615Z,12.15
2023-05-01T15:11:18.181Z,10.10
2023-05-01T15:13:49.576Z,13.13
2023-05-01T15:16:20.408Z,11.25
2023-05-01T15:18:50.212Z,12.05
2023-05-01T15:21:22.653Z,10.80
2023-05-01T15:23:52.553Z,11.07
2023-05-01T15:26:22.404Z,11.13
2023-05-01T15:28:52.264Z,13.15
2023-05-01T15:31:22.959Z,10.15
2023-05-01T15:33:52.780Z,12.05
2023-05-01T15:36:25.136Z,12.95
2023-05-01T15:38:56.792Z,17.05
2023-05-01T15:41:26.588Z,15.48
2023-05-01T15:43:56.394Z,13.70
2023-05-01T15:46:27.566Z,11.25
2023-05-01T15:48:58.977Z,10.77
2023-05-01T15:51:33.136Z,7.35
2023-05-01T15:54:04.184Z,9.80
2023-05-01T15:56:37.674Z,8.18
2023-05-01T15:59:08.204Z,8.80
2023-05-01T16:01:38.827Z,9.20
2023-05-01T16:04:15.979Z,11.70
2023-05-01T16:06:48.623Z,11.68
2023-05-01T16:09:19.216Z,10.68
2023-05-01T16:11:49.169Z,10.30
2023-05-01T16:14:19.361Z,10.43
2023-05-01T16:16:49.191Z,14.70
2023-05-01T16:19:19.475Z,9.75
2023-05-01T16:21:52.017Z,13.88
2023-05-01T16:24:21.887Z,13.38
2023-05-01T16:26:52.060Z,15.52
2023-05-01T16:29:21.889Z,15.70
2023-05-01T16:31:51.963Z,16.75
2023-05-01T16:34:27.307Z,13.15
2023-05-01T16:37:02.730Z,14.57
2023-05-01T16:39:32.636Z,13.63
2023-05-01T16:42:03.241Z,14.57
2023-05-01T16:44:33.333Z,15.02
2023-05-01T16:47:03.653Z,16.42
2023-05-01T16:49:33.838Z,18.20
2023-05-01T16:52:06.420Z,15.95
2023-05-01T16:54:36.497Z,22.15
2023-05-01T16:57:09.482Z,17.02
2023-05-01T16:59:44.720Z,16.58
2023-05-01T17:02:14.600Z,16.75
2023-05-01T17:04:46.894Z,18.73
2023-05-01T17:07:19.411Z,16.25
2023-05-01T17:09:49.274Z,15.65
2023-05-01T17:12:19.086Z,16.42
2023-05-01T17:14:49.129Z,15.47
2023-05-01T17:17:19.982Z,13.10
2023-05-01T17:19:49.836Z,14.07
2023-05-01T17:22:23.742Z,15.13
2023-05-01T17:24:53.881Z,12.80
2023-05-01T17:27:23.699Z,12.82
2023-05-01T17:29:53.561Z,14.30
2023-05-01T17:32:35.793Z,14.77
2023-05-01T17:35:07.760Z,14.65
2023-05-01T17:37:41.428Z,15.48
2023-05-01T17:40:13.944Z,18.80
2023-05-01T17:42:44.747Z,14.50
2023-05-01T18:01:49.543Z,13.82
2023-05-01T18:04:19.929Z,18.07
2023-05-01T18:06:49.921Z,16.73
2023-05-01T18:09:19.768Z,16.90
2023-05-01T18:11:49.637Z,17.50
2023-05-01T18:14:19.468Z,17.10
2023-05-01T18:16:52.947Z,18.35
2023-05-01T18:19:23.301Z,16.67
2023-05-01T18:21:53.454Z,17.40
2023-05-01T18:24:23.707Z,16.90
2023-05-01T18:26:53.631Z,16.15
2023-05-01T18:29:23.448Z,15.43
2023-05-01T18:31:57.723Z,20.97
2023-05-01T18:34:27.693Z,19.45
2023-05-01T18:36:57.558Z,19.83
2023-05-01T18:39:28.019Z,22.48
2023-05-01T18:42:01.095Z,20.17
2023-05-01T18:44:31.576Z,20.57
2023-05-01T18:47:04.025Z,20.50
2023-05-01T18:49:33.904Z,19.33
2023-05-01T18:52:04.571Z,24.17
2023-05-01T18:54:34.388Z,19.48
2023-05-01T18:57:04.321Z,19.80
2023-05-01T18:59:34.150Z,23.70
2023-05-01T19:02:06.969Z,23.90
2023-05-01T19:19:32.618Z,26.70
2023-05-01T19:22:02.794Z,28.45
2023-05-01T19:24:32.752Z,27.40
2023-05-01T19:27:05.234Z,25.47
2023-05-01T19:29:55.324Z,26.35
2023-05-01T19:32:27.754Z,23.75
2023-05-01T19:35:00.284Z,28.43
2023-05-01T19:37:30.665Z,23.73
2023-05-01T19:40:01.530Z,26.47
2023-05-01T19:42:31.512Z,28.05
2023-05-01T19:45:08.595Z,27.17
2023-05-01T19:47:56.148Z,31.70
2023-05-01T19:50:28.847Z,30.70
2023-05-01T19:53:02.337Z,31.13
2023-05-01T19:55:32.411Z,28.88
2023-05-01T19:58:12.724Z,28.37
2023-05-01T20:03:27.897Z,25.45
2023-05-01T20:06:03.627Z,29.23
2023-05-01T20:08:33.775Z,25.50
2023-05-01T20:11:13.842Z,19.80
2023-05-01T20:13:47.568Z,25.30
2023-05-01T20:16:28.872Z,20.93
2023-05-01T20:19:01.485Z,22.33
2023-05-01T20:21:40.775Z,21.47
2023-05-01T20:24:22.337Z,29.67
